Oceanside 95 — WBC8822 — position and weather

sailwx.info

Track history (hours):
 
Tides and Currents Weather Stations Pressure Air Temp Water Temp Dewpoint Dewpoint Depression Visibility Wind Speed Wind Dir Waves Ship Positions

Oceanside 95

Owner: HELGRENS OCEANSIDE SPORTFISHING TRIPS IN, OCEANSIDE, CA. More information available from US FCC via Universal Licensing System and Coast Guard Vessel Documentation Center.

Last reported at 2017-Sep-26 21:30 UTC. Time now 2017-Sep-26 21:38 UTC.
Position N 32°17' W 117°30'.

Type: Wing in ground effect craft. MMSI: 367150450.

Date/timePositionNaut miles runAvg speedWind from/ knotsBaromVisibWave heightAir tempDewpointWater temp
2017-Sep-26 21:30N 32°17' W 117°30'4 8.7
2017-Sep-26 21:00N 32°14' W 117°26'1 1.3
2017-Sep-26 20:30N 32°14' W 117°26'2 3.3
2017-Sep-26 20:00N 32°12' W 117°25'4 7.6
2017-Sep-26 19:30N 32°09' W 117°22'4 7.5
2017-Sep-26 19:00N 32°06' W 117°20'1 2.9
2017-Sep-26 18:30N 32°05' W 117°19'1 1.8
2017-Sep-26 18:00N 32°05' W 117°18'3 5.9
2017-Sep-26 17:30N 32°03' W 117°15'2 3.0
2017-Sep-26 16:49N 32°01' W 117°15'2 4.7
2017-Sep-26 16:30N 32°01' W 117°17'3 5.6
2017-Sep-26 16:00N 32°04' W 117°16'3 4.9
2017-Sep-26 15:25N 32°01' W 117°16'3 7.3
2017-Sep-26 15:00N 31°58' W 117°18'4 7.4
2017-Sep-26 14:30N 31°55' W 117°17'3 4.9
2017-Sep-26 13:59N 31°52' W 117°17'3 6.8
2017-Sep-26 13:30N 31°50' W 117°19'4 7.1
2017-Sep-26 13:00N 31°50' W 117°24'4 7.9
2017-Sep-26 12:30N 31°52' W 117°28'4 8.6
2017-Sep-26 12:00N 31°54' W 117°32'4 8.5
2017-Sep-26 11:30N 31°57' W 117°36'4 8.4
2017-Sep-26 11:00N 31°59' W 117°40'4 8.3
2017-Sep-26 10:30N 32°01' W 117°44'4 8.2
2017-Sep-26 10:00N 32°04' W 117°48'4 8.2
2017-Sep-26 09:30N 32°06' W 117°52'4 8.4
2017-Sep-26 09:00N 32°08' W 117°56'4 8.4
2017-Sep-26 08:30N 32°11' W 118°00'4 8.2
2017-Sep-26 08:00N 32°13' W 118°05'4 7.9
2017-Sep-26 07:30N 32°15' W 118°09'4 7.8
2017-Sep-26 07:00N 32°16' W 118°13'4 7.9
2017-Sep-26 06:30N 32°18' W 118°17'4 8.0
2017-Sep-26 06:01N 32°21' W 118°21'4 8.3
2017-Sep-26 05:30N 32°23' W 118°25'4 8.6
2017-Sep-26 05:00N 32°25' W 118°29'4 8.9
2017-Sep-26 04:30N 32°28' W 118°34'4 8.8
2017-Sep-26 04:00N 32°30' W 118°38'4 8.7
2017-Sep-26 03:31N 32°32' W 118°42'4 8.6
2017-Sep-26 03:00N 32°34' W 118°47'4 8.5
2017-Sep-26 02:30N 32°35' W 118°52'4 8.6
2017-Sep-26 02:00N 32°37' W 118°57'4 7.5
2017-Sep-26 01:30N 32°39' W 119°01'4 8.8
2017-Sep-26 01:00N 32°40' W 119°06'3 5.7
2017-Sep-26 00:28N 32°42' W 119°08'1 0.9
2017-Sep-25 23:38N 32°42' W 119°07'1 1.6
2017-Sep-25 23:09N 32°42' W 119°08'0 1.4
2017-Sep-25 22:57N 32°42' W 119°08'0 0.6
2017-Sep-25 22:30N 32°42' W 119°08'0 0.3
2017-Sep-25 22:00N 32°42' W 119°08'0 0.5
2017-Sep-25 21:30N 32°42' W 119°08'0 0.1
2017-Sep-25 20:53N 32°42' W 119°08'1 1.3
2017-Sep-25 20:25N 32°42' W 119°08'0 0.5
2017-Sep-25 20:00N 32°42' W 119°08'1 0.3
2017-Sep-25 17:44N 32°42' W 119°08'0 0.0
2017-Sep-25 17:25N 32°42' W 119°08'0 0.0
2017-Sep-25 16:55N 32°42' W 119°08'1 0.6
2017-Sep-25 15:30N 32°42' W 119°07'0 0.1
2017-Sep-25 14:56N 32°42' W 119°08'0 0.1
2017-Sep-25 14:30N 32°42' W 119°07'6 5.8
2017-Sep-25 13:25N 32°43' W 119°00'4 9.1
2017-Sep-25 12:59N 32°43' W 118°55'4 9.1
2017-Sep-25 12:30N 32°44' W 118°50'5 9.6
2017-Sep-25 12:00N 32°45' W 118°45'5 9.7
2017-Sep-25 11:30N 32°45' W 118°39'5 9.7
2017-Sep-25 11:00N 32°46' W 118°33'5 9.5
2017-Sep-25 10:30N 32°47' W 118°28'5 9.5
2017-Sep-25 10:00N 32°48' W 118°22'5 9.7
2017-Sep-25 09:30N 32°50' W 118°17'510.5
2017-Sep-25 09:00N 32°52' W 118°12'510.2
2017-Sep-25 08:30N 32°55' W 118°06'510.1
2017-Sep-25 08:00N 32°57' W 118°01'5 9.7
2017-Sep-25 07:30N 32°59' W 117°56'5 9.6
2017-Sep-25 07:00N 33°00' W 117°50'5 9.9
2017-Sep-25 06:30N 33°02' W 117°45'5 9.6
2017-Sep-25 06:00N 33°04' W 117°39'5 9.8
2017-Sep-25 05:30N 33°05' W 117°34'510.0
2017-Sep-25 05:00N 33°07' W 117°28'4 8.1
2017-Sep-25 04:30N 33°10' W 117°24'2 5.0
2017-Sep-25 04:01N 33°12' W 117°24'0 0.0
2017-Sep-25 03:30N 33°12' W 117°24'0 0.4
2017-Sep-25 03:00N 33°12' W 117°23'0 0.0
2017-Sep-25 02:30N 33°12' W 117°23'0 0.0
2017-Sep-25 02:00N 33°12' W 117°23'0 0.0
2017-Sep-25 01:30N 33°12' W 117°23'0 0.0
2017-Sep-25 01:00N 33°12' W 117°23'0 0.0
2017-Sep-25 00:30N 33°12' W 117°23'0 0.0
2017-Sep-25 00:00N 33°12' W 117°23'0 0.0
2017-Sep-24 23:30N 33°12' W 117°23'0 0.0
2017-Sep-24 23:00N 33°12' W 117°23'2 3.0
2017-Sep-24 22:30N 33°11' W 117°23'611.1
2017-Sep-24 22:00N 33°06' W 117°20'2 4.6
2017-Sep-24 21:30N 33°04' W 117°19'0 0.1
2017-Sep-24 21:00N 33°04' W 117°19'0 0.0
2017-Sep-24 20:30N 33°04' W 117°19'0 0.0
2017-Sep-24 20:00N 33°04' W 117°19'0 0.7
2017-Sep-24 19:30N 33°04' W 117°19'0 0.0
2017-Sep-24 19:00N 33°04' W 117°19'0 0.0
2017-Sep-24 18:30N 33°04' W 117°19'4 7.7
2017-Sep-24 18:00N 33°07' W 117°21'510.3
2017-Sep-24 17:30N 33°12' W 117°24'1 1.5
2017-Sep-24 17:00N 33°12' W 117°23'0 0.0
2017-Sep-24 16:30N 33°12' W 117°23'0 0.0
2017-Sep-24 16:00N 33°12' W 117°23'0 0.0
2017-Sep-24 15:30N 33°12' W 117°23'0 0.0
2017-Sep-24 15:00N 33°12' W 117°23'0 0.0
2017-Sep-24 14:30N 33°12' W 117°23'0 0.0
2017-Sep-24 14:00N 33°12' W 117°23'0 0.0
2017-Sep-24 13:30N 33°12' W 117°23'0 0.0
2017-Sep-24 13:00N 33°12' W 117°23'0 0.0
2017-Sep-24 12:30N 33°12' W 117°23'0 0.0
2017-Sep-24 12:00N 33°12' W 117°23'0 0.0
2017-Sep-24 11:30N 33°12' W 117°23'0 0.0
2017-Sep-24 11:00N 33°12' W 117°23'0 0.0
2017-Sep-24 10:30N 33°12' W 117°23'0 0.0
2017-Sep-24 10:00N 33°12' W 117°23'0 0.0
2017-Sep-24 09:30N 33°12' W 117°23'0 0.0
2017-Sep-24 09:00N 33°12' W 117°23'1 2.5
2017-Sep-24 08:30N 33°11' W 117°25'4 7.7
2017-Sep-24 08:01N 33°08' W 117°26'4 7.7
2017-Sep-24 07:30N 33°04' W 117°27'4 7.8
2017-Sep-24 07:00N 33°00' W 117°28'4 8.2
2017-Sep-24 06:30N 32°56' W 117°29'4 8.4
2017-Sep-24 06:00N 32°52' W 117°31'4 8.2
2017-Sep-24 05:30N 32°49' W 117°33'4 8.3
2017-Sep-24 05:00N 32°45' W 117°34'4 8.3
2017-Sep-24 04:30N 32°41' W 117°36'4 8.4
2017-Sep-24 04:00N 32°37' W 117°38'4 8.4
2017-Sep-24 03:30N 32°33' W 117°39'4 7.6
2017-Sep-24 03:00N 32°29' W 117°40'4 8.0
2017-Sep-24 02:30N 32°25' W 117°42'4 7.3
2017-Sep-24 01:59N 32°24' W 117°38'3 6.8
2017-Sep-24 01:30N 32°22' W 117°35'3 5.5
2017-Sep-24 01:00N 32°19' W 117°34'1 2.6
2017-Sep-24 00:30N 32°18' W 117°33'55 1.2
2017-Sep-22 02:00N 33°12' W 117°23'0 0.0
2017-Sep-22 01:29N 33°12' W 117°23'0 0.0
2017-Sep-22 01:01N 33°12' W 117°23'0 0.0
2017-Sep-22 00:30N 33°12' W 117°23'0 0.0
2017-Sep-22 00:00N 33°12' W 117°23'0 0.0
2017-Sep-21 23:30N 33°12' W 117°23'0 0.0
2017-Sep-21 23:01N 33°12' W 117°23'0 0.0
2017-Sep-21 08:35N 33°12' W 117°23'0 0.1
2017-Sep-21 08:30N 33°12' W 117°23'0 0.0
2017-Sep-21 08:00N 33°12' W 117°23'0 0.0
2017-Sep-21 07:30N 33°12' W 117°23'0 0.0
2017-Sep-21 07:00N 33°12' W 117°23'0 0.0
2017-Sep-21 06:30N 33°12' W 117°23'0 0.0
2017-Sep-21 06:00N 33°12' W 117°23'0 0.0
2017-Sep-21 05:30N 33°12' W 117°23'0 0.0
2017-Sep-21 05:01N 33°12' W 117°23'0 0.0
2017-Sep-21 04:30N 33°12' W 117°23'0 0.0
2017-Sep-21 04:00N 33°12' W 117°23'0 0.0
2017-Sep-21 03:31N 33°12' W 117°23'0 0.0
2017-Sep-21 03:00N 33°12' W 117°23'0 0.0
2017-Sep-21 02:30N 33°12' W 117°23'0 0.0
2017-Sep-21 02:00N 33°12' W 117°23'0 0.0
2017-Sep-21 01:30N 33°12' W 117°23'0 0.0
2017-Sep-21 01:00N 33°12' W 117°23'0 0.0
2017-Sep-21 00:30N 33°12' W 117°23'0 0.0
2017-Sep-21 00:00N 33°12' W 117°23'0 0.0
2017-Sep-20 23:30N 33°12' W 117°23'0 0.0
2017-Sep-20 23:00N 33°12' W 117°23'0 0.0
2017-Sep-20 22:30N 33°12' W 117°23'0 0.0
2017-Sep-20 22:01N 33°12' W 117°23'0 0.0
2017-Sep-20 21:30N 33°12' W 117°23'0 0.0
2017-Sep-20 21:01N 33°12' W 117°23'0 0.0
2017-Sep-20 20:31N 33°12' W 117°23'0 0.0
2017-Sep-20 20:00N 33°12' W 117°23'0 0.0
2017-Sep-20 19:30N 33°12' W 117°23'0 0.0
2017-Sep-20 19:00N 33°12' W 117°23'0 0.0
2017-Sep-20 18:30N 33°12' W 117°23'0 0.0
2017-Sep-20 18:00N 33°12' W 117°23'0 0.0
2017-Sep-20 17:30N 33°12' W 117°23'0 0.0
2017-Sep-20 17:00N 33°12' W 117°23'0 0.0
2017-Sep-20 16:30N 33°12' W 117°23'0 0.0
2017-Sep-20 16:00N 33°12' W 117°23'0 0.0
2017-Sep-20 15:30N 33°12' W 117°23'0 0.0
2017-Sep-20 15:00N 33°12' W 117°23'0 0.0
2017-Sep-20 14:00N 33°12' W 117°23'0 0.0
2017-Sep-20 13:30N 33°12' W 117°23'0 0.0
2017-Sep-20 13:00N 33°12' W 117°23'0 0.0
2017-Sep-20 12:30N 33°12' W 117°23'0 0.0
2017-Sep-20 12:01N 33°12' W 117°23'0 0.0
2017-Sep-20 11:30N 33°12' W 117°23'0 0.0
2017-Sep-20 11:00N 33°12' W 117°23'0 0.0
2017-Sep-20 10:31N 33°12' W 117°23'0 0.0
2017-Sep-20 10:01N 33°12' W 117°23'0 0.0
2017-Sep-20 09:30N 33°12' W 117°23'1 1.9
2017-Sep-20 09:00N 33°12' W 117°24'5 9.6
2017-Sep-20 08:30N 33°07' W 117°25'510.0
2017-Sep-20 08:00N 33°02' W 117°25'5 9.8
2017-Sep-20 07:30N 32°57' W 117°25'5 9.7
2017-Sep-20 07:01N 32°52' W 117°25'5 9.8
2017-Sep-20 06:30N 32°47' W 117°26'5 9.7
2017-Sep-20 06:00N 32°43' W 117°26'5 9.6
2017-Sep-20 05:30N 32°38' W 117°26'5 9.7
2017-Sep-20 05:01N 32°33' W 117°26'5 9.8
2017-Sep-20 04:31N 32°28' W 117°27'5 9.7
2017-Sep-20 04:00N 32°23' W 117°27'5 9.7
2017-Sep-20 03:29N 32°18' W 117°27'5 9.6
2017-Sep-20 03:00N 32°14' W 117°28'5 9.3
2017-Sep-20 02:30N 32°09' W 117°28'7 4.9
2017-Sep-20 01:09N 32°03' W 117°25'1 2.0
2017-Sep-20 00:54N 32°03' W 117°25'2 5.4
2017-Sep-20 00:30N 32°01' W 117°25'2 3.8
2017-Sep-20 00:00N 31°60' W 117°25'2 3.8
2017-Sep-19 23:28N 31°57' W 117°25'1 2.8
2017-Sep-19 23:00N 31°58' W 117°26'17 3.5
2017-Sep-19 18:08N 32°15' W 117°28'0 1.5
2017-Sep-19 17:52N 32°15' W 117°29'3 6.8
2017-Sep-19 17:28N 32°18' W 117°28'2 4.0
2017-Sep-19 17:00N 32°20' W 117°30'3 5.1
2017-Sep-19 16:30N 32°19' W 117°33'1 2.2
2017-Sep-19 16:01N 32°20' W 117°33'3 5.5
2017-Sep-19 15:26N 32°23' W 117°35'3 7.2
2017-Sep-19 15:01N 32°26' W 117°36'3 5.9
2017-Sep-19 14:31N 32°29' W 117°34'2 4.4
2017-Sep-19 14:00N 32°27' W 117°33'2 3.3
2017-Sep-19 13:31N 32°25' W 117°33'0 0.5
2017-Sep-19 13:01N 32°25' W 117°33'0 0.2
2017-Sep-19 12:31N 32°25' W 117°33'2 3.4
2017-Sep-19 12:00N 32°24' W 117°35'2 3.7
2017-Sep-19 11:30N 32°25' W 117°34'4 7.0
2017-Sep-19 11:00N 32°29' W 117°32'1 1.9
2017-Sep-19 10:31N 32°29' W 117°31'2 4.4
2017-Sep-19 10:00N 32°31' W 117°30'3 6.3
2017-Sep-19 09:30N 32°34' W 117°29'3 6.3
2017-Sep-19 09:01N 32°37' W 117°28'3 6.6
2017-Sep-19 08:30N 32°41' W 117°28'3 6.7
2017-Sep-19 08:00N 32°44' W 117°28'3 6.7
2017-Sep-19 07:31N 32°47' W 117°27'3 6.7
2017-Sep-19 07:00N 32°51' W 117°27'3 6.8
2017-Sep-19 06:31N 32°54' W 117°26'3 6.8
2017-Sep-19 06:00N 32°57' W 117°26'3 6.9
2017-Sep-19 05:30N 33°01' W 117°26'3 6.8
2017-Sep-19 05:00N 33°04' W 117°25'3 6.8
2017-Sep-19 04:31N 33°08' W 117°25'4 7.6
2017-Sep-19 04:01N 33°11' W 117°25'1 2.7
2017-Sep-19 03:30N 33°12' W 117°24'0 0.4
2017-Sep-19 03:00N 33°12' W 117°23'0 0.0
2017-Sep-19 02:31N 33°12' W 117°23'0 0.0
2017-Sep-19 02:00N 33°12' W 117°23'0 0.0
2017-Sep-19 01:31N 33°12' W 117°23'0 0.0
2017-Sep-19 01:00N 33°12' W 117°23'0 0.0
2017-Sep-19 00:31N 33°12' W 117°23'0 0.0
2017-Sep-19 00:00N 33°12' W 117°23'0 0.0
2017-Sep-18 23:31N 33°12' W 117°23'0 0.0
2017-Sep-18 23:01N 33°12' W 117°23'0 0.0
2017-Sep-18 22:31N 33°12' W 117°23'0 0.0
2017-Sep-18 22:01N 33°12' W 117°23'0 0.0
2017-Sep-18 21:31N 33°12' W 117°23'0 0.0
2017-Sep-18 21:00N 33°12' W 117°23'0 0.0
2017-Sep-18 20:30N 33°12' W 117°23'0 0.0
2017-Sep-18 20:00N 33°12' W 117°23'0 0.0
2017-Sep-18 19:30N 33°12' W 117°23'0 0.0
2017-Sep-18 19:00N 33°12' W 117°23'0 0.0
2017-Sep-18 18:30N 33°12' W 117°23'0 0.0
2017-Sep-18 18:00N 33°12' W 117°23'0 0.0
2017-Sep-18 17:30N 33°12' W 117°23'0 0.0
2017-Sep-18 17:00N 33°12' W 117°23'0 0.0
2017-Sep-18 16:30N 33°12' W 117°23'0 0.0
2017-Sep-18 16:00N 33°12' W 117°23'0 0.0
2017-Sep-18 15:30N 33°12' W 117°23'0 0.0
2017-Sep-18 15:00N 33°12' W 117°23'0 0.0
2017-Sep-18 14:30N 33°12' W 117°23'0 0.0
2017-Sep-18 14:00N 33°12' W 117°23'0 0.0
2017-Sep-18 13:31N 33°12' W 117°23'0 0.0
2017-Sep-18 13:00N 33°12' W 117°23'0 0.0
2017-Sep-18 12:30N 33°12' W 117°23'0 0.0
2017-Sep-18 12:00N 33°12' W 117°23'0 0.0
2017-Sep-18 11:30N 33°12' W 117°23'0 0.0
2017-Sep-18 11:00N 33°12' W 117°23'0 0.0
2017-Sep-18 10:30N 33°12' W 117°23'0 0.0
2017-Sep-18 10:00N 33°12' W 117°23'0 0.0
2017-Sep-18 09:30N 33°12' W 117°23'0 0.0
2017-Sep-18 09:01N 33°12' W 117°23'2 3.9
2017-Sep-18 08:30N 33°11' W 117°24'5 9.8
2017-Sep-18 08:00N 33°06' W 117°25'5 9.8
2017-Sep-18 07:30N 33°01' W 117°25'5 9.7
2017-Sep-18 07:00N 32°56' W 117°25'5 9.5
2017-Sep-18 06:30N 32°51' W 117°25'5 9.6
2017-Sep-18 06:00N 32°46' W 117°26'5 9.6
2017-Sep-18 05:31N 32°42' W 117°26'5 9.5
2017-Sep-18 05:00N 32°37' W 117°26'5 9.4
2017-Sep-18 04:30N 32°32' W 117°27'5 9.7
2017-Sep-18 04:00N 32°27' W 117°27'5 9.7
2017-Sep-18 03:30N 32°22' W 117°27'5 9.7
2017-Sep-18 02:56N 32°17' W 117°27'3 0.8
2017-Sep-17 23:10N 32°19' W 117°30'1 7.8
2017-Sep-17 23:00N 32°20' W 117°31'4 7.4
2017-Sep-17 22:30N 32°23' W 117°34'3 6.3
2017-Sep-17 22:00N 32°25' W 117°31'4 7.2
2017-Sep-17 21:30N 32°28' W 117°32'3 5.6
2017-Sep-17 21:00N 32°31' W 117°34'4 7.3
2017-Sep-17 20:30N 32°34' W 117°35'3 6.0
2017-Sep-17 20:00N 32°37' W 117°35'1 2.0
2017-Sep-17 19:30N 32°36' W 117°35'3 6.7
2017-Sep-17 19:01N 32°35' W 117°31'1 1.0
2017-Sep-17 18:31N 32°35' W 117°32'0 0.5
2017-Sep-17 18:00N 32°35' W 117°32'1 2.4
2017-Sep-17 17:30N 32°34' W 117°32'3 6.9
2017-Sep-17 17:00N 32°31' W 117°33'1 2.6
2017-Sep-17 16:30N 32°32' W 117°33'0 0.5
2017-Sep-17 16:00N 32°32' W 117°33'5 9.5
2017-Sep-17 15:30N 32°27' W 117°34'4 7.2
2017-Sep-17 15:00N 32°24' W 117°34'1 2.2
2017-Sep-17 14:30N 32°25' W 117°33'2 3.0
2017-Sep-17 14:00N 32°25' W 117°32'2 4.5
2017-Sep-17 13:30N 32°27' W 117°34'2 4.2
2017-Sep-17 13:00N 32°25' W 117°32'2 4.7
2017-Sep-17 12:30N 32°26' W 117°35'2 4.9
2017-Sep-17 12:00N 32°24' W 117°36'2 4.6
2017-Sep-17 11:30N 32°22' W 117°35'2 4.4
2017-Sep-17 11:00N 32°24' W 117°35'3 5.6
2017-Sep-17 10:30N 32°27' W 117°35'3 6.0
2017-Sep-17 10:00N 32°30' W 117°34'3 6.0
2017-Sep-17 09:30N 32°33' W 117°33'4 7.2
2017-Sep-17 09:00N 32°36' W 117°32'4 7.6
2017-Sep-17 08:31N 32°40' W 117°31'4 7.8
2017-Sep-17 08:01N 32°44' W 117°30'4 7.9
2017-Sep-17 07:30N 32°48' W 117°29'4 7.9
2017-Sep-17 07:00N 32°52' W 117°28'4 7.9
2017-Sep-17 06:30N 32°55' W 117°28'4 8.0
2017-Sep-17 06:00N 32°59' W 117°27'4 7.8
2017-Sep-17 05:30N 33°03' W 117°27'4 7.8
2017-Sep-17 05:00N 33°07' W 117°26'4 8.1
2017-Sep-17 04:30N 33°11' W 117°25'2 3.5
2017-Sep-17 04:00N 33°12' W 117°24'0 0.4
2017-Sep-17 03:30N 33°12' W 117°23'0 0.0
2017-Sep-17 03:00N 33°12' W 117°23'0 0.0
2017-Sep-17 02:31N 33°12' W 117°23'0 0.2
2017-Sep-17 02:00N 33°12' W 117°24'4 8.6
2017-Sep-17 01:30N 33°08' W 117°25'510.4
2017-Sep-17 01:00N 33°03' W 117°26'510.4
2017-Sep-17 00:30N 32°58' W 117°27'510.1
2017-Sep-17 00:00N 32°53' W 117°28'510.3
2017-Sep-16 23:30N 32°48' W 117°29'510.2
2017-Sep-16 23:00N 32°43' W 117°30'510.1
2017-Sep-16 22:30N 32°38' W 117°31'510.0
2017-Sep-16 22:00N 32°33' W 117°32'5 9.6
2017-Sep-16 21:30N 32°28' W 117°33'  
Track history (hours):
 
Tides and Currents Weather Stations Pressure Air Temp Water Temp Dewpoint Dewpoint Depression Visibility Wind Speed Wind Dir Waves Ship Positions

Oceanside 95

Owner: HELGRENS OCEANSIDE SPORTFISHING TRIPS IN, OCEANSIDE, CA. More information available from US FCC via Universal Licensing System and Coast Guard Vessel Documentation Center.

Last reported at 2017-Sep-26 21:30 UTC. Time now 2017-Sep-26 21:38 UTC.
Position N 32°17' W 117°30'.

Type: Wing in ground effect craft. MMSI: 367150450.

Date/timePositionNaut miles runAvg speedWind from/ knotsBaromVisibWave heightAir tempDewpointWater temp
2017-Sep-26 21:30N 32°17' W 117°30'4 8.7
2017-Sep-26 21:00N 32°14' W 117°26'1 1.3
2017-Sep-26 20:30N 32°14' W 117°26'2 3.3
2017-Sep-26 20:00N 32°12' W 117°25'4 7.6
2017-Sep-26 19:30N 32°09' W 117°22'4 7.5
2017-Sep-26 19:00N 32°06' W 117°20'1 2.9
2017-Sep-26 18:30N 32°05' W 117°19'1 1.8
2017-Sep-26 18:00N 32°05' W 117°18'3 5.9
2017-Sep-26 17:30N 32°03' W 117°15'2 3.0
2017-Sep-26 16:49N 32°01' W 117°15'2 4.7
2017-Sep-26 16:30N 32°01' W 117°17'3 5.6
2017-Sep-26 16:00N 32°04' W 117°16'3 4.9
2017-Sep-26 15:25N 32°01' W 117°16'3 7.3
2017-Sep-26 15:00N 31°58' W 117°18'4 7.4
2017-Sep-26 14:30N 31°55' W 117°17'3 4.9
2017-Sep-26 13:59N 31°52' W 117°17'3 6.8
2017-Sep-26 13:30N 31°50' W 117°19'4 7.1
2017-Sep-26 13:00N 31°50' W 117°24'4 7.9
2017-Sep-26 12:30N 31°52' W 117°28'4 8.6
2017-Sep-26 12:00N 31°54' W 117°32'4 8.5
2017-Sep-26 11:30N 31°57' W 117°36'4 8.4
2017-Sep-26 11:00N 31°59' W 117°40'4 8.3
2017-Sep-26 10:30N 32°01' W 117°44'4 8.2
2017-Sep-26 10:00N 32°04' W 117°48'4 8.2
2017-Sep-26 09:30N 32°06' W 117°52'4 8.4
2017-Sep-26 09:00N 32°08' W 117°56'4 8.4
2017-Sep-26 08:30N 32°11' W 118°00'4 8.2
2017-Sep-26 08:00N 32°13' W 118°05'4 7.9
2017-Sep-26 07:30N 32°15' W 118°09'4 7.8
2017-Sep-26 07:00N 32°16' W 118°13'4 7.9
2017-Sep-26 06:30N 32°18' W 118°17'4 8.0
2017-Sep-26 06:01N 32°21' W 118°21'4 8.3
2017-Sep-26 05:30N 32°23' W 118°25'4 8.6
2017-Sep-26 05:00N 32°25' W 118°29'4 8.9
2017-Sep-26 04:30N 32°28' W 118°34'4 8.8
2017-Sep-26 04:00N 32°30' W 118°38'4 8.7
2017-Sep-26 03:31N 32°32' W 118°42'4 8.6
2017-Sep-26 03:00N 32°34' W 118°47'4 8.5
2017-Sep-26 02:30N 32°35' W 118°52'4 8.6
2017-Sep-26 02:00N 32°37' W 118°57'4 7.5
2017-Sep-26 01:30N 32°39' W 119°01'4 8.8
2017-Sep-26 01:00N 32°40' W 119°06'3 5.7
2017-Sep-26 00:28N 32°42' W 119°08'1 0.9
2017-Sep-25 23:38N 32°42' W 119°07'1 1.6
2017-Sep-25 23:09N 32°42' W 119°08'0 1.4
2017-Sep-25 22:57N 32°42' W 119°08'0 0.6
2017-Sep-25 22:30N 32°42' W 119°08'0 0.3
2017-Sep-25 22:00N 32°42' W 119°08'0 0.5
2017-Sep-25 21:30N 32°42' W 119°08'0 0.1
2017-Sep-25 20:53N 32°42' W 119°08'1 1.3
2017-Sep-25 20:25N 32°42' W 119°08'0 0.5
2017-Sep-25 20:00N 32°42' W 119°08'1 0.3
2017-Sep-25 17:44N 32°42' W 119°08'0 0.0
2017-Sep-25 17:25N 32°42' W 119°08'0 0.0
2017-Sep-25 16:55N 32°42' W 119°08'1 0.6
2017-Sep-25 15:30N 32°42' W 119°07'0 0.1
2017-Sep-25 14:56N 32°42' W 119°08'0 0.1
2017-Sep-25 14:30N 32°42' W 119°07'6 5.8
2017-Sep-25 13:25N 32°43' W 119°00'4 9.1
2017-Sep-25 12:59N 32°43' W 118°55'4 9.1
2017-Sep-25 12:30N 32°44' W 118°50'5 9.6
2017-Sep-25 12:00N 32°45' W 118°45'5 9.7
2017-Sep-25 11:30N 32°45' W 118°39'5 9.7
2017-Sep-25 11:00N 32°46' W 118°33'5 9.5
2017-Sep-25 10:30N 32°47' W 118°28'5 9.5
2017-Sep-25 10:00N 32°48' W 118°22'5 9.7
2017-Sep-25 09:30N 32°50' W 118°17'510.5
2017-Sep-25 09:00N 32°52' W 118°12'510.2
2017-Sep-25 08:30N 32°55' W 118°06'510.1
2017-Sep-25 08:00N 32°57' W 118°01'5 9.7
2017-Sep-25 07:30N 32°59' W 117°56'5 9.6
2017-Sep-25 07:00N 33°00' W 117°50'5 9.9
2017-Sep-25 06:30N 33°02' W 117°45'5 9.6
2017-Sep-25 06:00N 33°04' W 117°39'5 9.8
2017-Sep-25 05:30N 33°05' W 117°34'510.0
2017-Sep-25 05:00N 33°07' W 117°28'4 8.1
2017-Sep-25 04:30N 33°10' W 117°24'2 5.0
2017-Sep-25 04:01N 33°12' W 117°24'0 0.0
2017-Sep-25 03:30N 33°12' W 117°24'0 0.4
2017-Sep-25 03:00N 33°12' W 117°23'0 0.0
2017-Sep-25 02:30N 33°12' W 117°23'0 0.0
2017-Sep-25 02:00N 33°12' W 117°23'0 0.0
2017-Sep-25 01:30N 33°12' W 117°23'0 0.0
2017-Sep-25 01:00N 33°12' W 117°23'0 0.0
2017-Sep-25 00:30N 33°12' W 117°23'0 0.0
2017-Sep-25 00:00N 33°12' W 117°23'0 0.0
2017-Sep-24 23:30N 33°12' W 117°23'0 0.0
2017-Sep-24 23:00N 33°12' W 117°23'2 3.0
2017-Sep-24 22:30N 33°11' W 117°23'611.1
2017-Sep-24 22:00N 33°06' W 117°20'2 4.6
2017-Sep-24 21:30N 33°04' W 117°19'0 0.1
2017-Sep-24 21:00N 33°04' W 117°19'0 0.0
2017-Sep-24 20:30N 33°04' W 117°19'0 0.0
2017-Sep-24 20:00N 33°04' W 117°19'0 0.7
2017-Sep-24 19:30N 33°04' W 117°19'0 0.0
2017-Sep-24 19:00N 33°04' W 117°19'0 0.0
2017-Sep-24 18:30N 33°04' W 117°19'4 7.7
2017-Sep-24 18:00N 33°07' W 117°21'510.3
2017-Sep-24 17:30N 33°12' W 117°24'1 1.5
2017-Sep-24 17:00N 33°12' W 117°23'0 0.0
2017-Sep-24 16:30N 33°12' W 117°23'0 0.0
2017-Sep-24 16:00N 33°12' W 117°23'0 0.0
2017-Sep-24 15:30N 33°12' W 117°23'0 0.0
2017-Sep-24 15:00N 33°12' W 117°23'0 0.0
2017-Sep-24 14:30N 33°12' W 117°23'0 0.0
2017-Sep-24 14:00N 33°12' W 117°23'0 0.0
2017-Sep-24 13:30N 33°12' W 117°23'0 0.0
2017-Sep-24 13:00N 33°12' W 117°23'0 0.0
2017-Sep-24 12:30N 33°12' W 117°23'0 0.0
2017-Sep-24 12:00N 33°12' W 117°23'0 0.0
2017-Sep-24 11:30N 33°12' W 117°23'0 0.0
2017-Sep-24 11:00N 33°12' W 117°23'0 0.0
2017-Sep-24 10:30N 33°12' W 117°23'0 0.0
2017-Sep-24 10:00N 33°12' W 117°23'0 0.0
2017-Sep-24 09:30N 33°12' W 117°23'0 0.0
2017-Sep-24 09:00N 33°12' W 117°23'1 2.5
2017-Sep-24 08:30N 33°11' W 117°25'4 7.7
2017-Sep-24 08:01N 33°08' W 117°26'4 7.7
2017-Sep-24 07:30N 33°04' W 117°27'4 7.8
2017-Sep-24 07:00N 33°00' W 117°28'4 8.2
2017-Sep-24 06:30N 32°56' W 117°29'4 8.4
2017-Sep-24 06:00N 32°52' W 117°31'4 8.2
2017-Sep-24 05:30N 32°49' W 117°33'4 8.3
2017-Sep-24 05:00N 32°45' W 117°34'4 8.3
2017-Sep-24 04:30N 32°41' W 117°36'4 8.4
2017-Sep-24 04:00N 32°37' W 117°38'4 8.4
2017-Sep-24 03:30N 32°33' W 117°39'4 7.6
2017-Sep-24 03:00N 32°29' W 117°40'4 8.0
2017-Sep-24 02:30N 32°25' W 117°42'4 7.3
2017-Sep-24 01:59N 32°24' W 117°38'3 6.8
2017-Sep-24 01:30N 32°22' W 117°35'3 5.5
2017-Sep-24 01:00N 32°19' W 117°34'1 2.6
2017-Sep-24 00:30N 32°18' W 117°33'55 1.2
2017-Sep-22 02:00N 33°12' W 117°23'0 0.0
2017-Sep-22 01:29N 33°12' W 117°23'0 0.0
2017-Sep-22 01:01N 33°12' W 117°23'0 0.0
2017-Sep-22 00:30N 33°12' W 117°23'0 0.0
2017-Sep-22 00:00N 33°12' W 117°23'0 0.0
2017-Sep-21 23:30N 33°12' W 117°23'0 0.0
2017-Sep-21 23:01N 33°12' W 117°23'0 0.0
2017-Sep-21 08:35N 33°12' W 117°23'0 0.1
2017-Sep-21 08:30N 33°12' W 117°23'0 0.0
2017-Sep-21 08:00N 33°12' W 117°23'0 0.0
2017-Sep-21 07:30N 33°12' W 117°23'0 0.0
2017-Sep-21 07:00N 33°12' W 117°23'0 0.0
2017-Sep-21 06:30N 33°12' W 117°23'0 0.0
2017-Sep-21 06:00N 33°12' W 117°23'0 0.0
2017-Sep-21 05:30N 33°12' W 117°23'0 0.0
2017-Sep-21 05:01N 33°12' W 117°23'0 0.0
2017-Sep-21 04:30N 33°12' W 117°23'0 0.0
2017-Sep-21 04:00N 33°12' W 117°23'0 0.0
2017-Sep-21 03:31N 33°12' W 117°23'0 0.0
2017-Sep-21 03:00N 33°12' W 117°23'0 0.0
2017-Sep-21 02:30N 33°12' W 117°23'0 0.0
2017-Sep-21 02:00N 33°12' W 117°23'0 0.0
2017-Sep-21 01:30N 33°12' W 117°23'0 0.0
2017-Sep-21 01:00N 33°12' W 117°23'0 0.0
2017-Sep-21 00:30N 33°12' W 117°23'0 0.0
2017-Sep-21 00:00N 33°12' W 117°23'0 0.0
2017-Sep-20 23:30N 33°12' W 117°23'0 0.0
2017-Sep-20 23:00N 33°12' W 117°23'0 0.0
2017-Sep-20 22:30N 33°12' W 117°23'0 0.0
2017-Sep-20 22:01N 33°12' W 117°23'0 0.0
2017-Sep-20 21:30N 33°12' W 117°23'0 0.0
2017-Sep-20 21:01N 33°12' W 117°23'0 0.0
2017-Sep-20 20:31N 33°12' W 117°23'0 0.0
2017-Sep-20 20:00N 33°12' W 117°23'0 0.0
2017-Sep-20 19:30N 33°12' W 117°23'0 0.0
2017-Sep-20 19:00N 33°12' W 117°23'0 0.0
2017-Sep-20 18:30N 33°12' W 117°23'0 0.0
2017-Sep-20 18:00N 33°12' W 117°23'0 0.0
2017-Sep-20 17:30N 33°12' W 117°23'0 0.0
2017-Sep-20 17:00N 33°12' W 117°23'0 0.0
2017-Sep-20 16:30N 33°12' W 117°23'0 0.0
2017-Sep-20 16:00N 33°12' W 117°23'0 0.0
2017-Sep-20 15:30N 33°12' W 117°23'0 0.0
2017-Sep-20 15:00N 33°12' W 117°23'0 0.0
2017-Sep-20 14:00N 33°12' W 117°23'0 0.0
2017-Sep-20 13:30N 33°12' W 117°23'0 0.0
2017-Sep-20 13:00N 33°12' W 117°23'0 0.0
2017-Sep-20 12:30N 33°12' W 117°23'0 0.0
2017-Sep-20 12:01N 33°12' W 117°23'0 0.0
2017-Sep-20 11:30N 33°12' W 117°23'0 0.0
2017-Sep-20 11:00N 33°12' W 117°23'0 0.0
2017-Sep-20 10:31N 33°12' W 117°23'0 0.0
2017-Sep-20 10:01N 33°12' W 117°23'0 0.0
2017-Sep-20 09:30N 33°12' W 117°23'1 1.9
2017-Sep-20 09:00N 33°12' W 117°24'5 9.6
2017-Sep-20 08:30N 33°07' W 117°25'510.0
2017-Sep-20 08:00N 33°02' W 117°25'5 9.8
2017-Sep-20 07:30N 32°57' W 117°25'5 9.7
2017-Sep-20 07:01N 32°52' W 117°25'5 9.8
2017-Sep-20 06:30N 32°47' W 117°26'5 9.7
2017-Sep-20 06:00N 32°43' W 117°26'5 9.6
2017-Sep-20 05:30N 32°38' W 117°26'5 9.7
2017-Sep-20 05:01N 32°33' W 117°26'5 9.8
2017-Sep-20 04:31N 32°28' W 117°27'5 9.7
2017-Sep-20 04:00N 32°23' W 117°27'5 9.7
2017-Sep-20 03:29N 32°18' W 117°27'5 9.6
2017-Sep-20 03:00N 32°14' W 117°28'5 9.3
2017-Sep-20 02:30N 32°09' W 117°28'7 4.9
2017-Sep-20 01:09N 32°03' W 117°25'1 2.0
2017-Sep-20 00:54N 32°03' W 117°25'2 5.4
2017-Sep-20 00:30N 32°01' W 117°25'2 3.8
2017-Sep-20 00:00N 31°60' W 117°25'2 3.8
2017-Sep-19 23:28N 31°57' W 117°25'1 2.8
2017-Sep-19 23:00N 31°58' W 117°26'17 3.5
2017-Sep-19 18:08N 32°15' W 117°28'0 1.5
2017-Sep-19 17:52N 32°15' W 117°29'3 6.8
2017-Sep-19 17:28N 32°18' W 117°28'2 4.0
2017-Sep-19 17:00N 32°20' W 117°30'3 5.1
2017-Sep-19 16:30N 32°19' W 117°33'1 2.2
2017-Sep-19 16:01N 32°20' W 117°33'3 5.5
2017-Sep-19 15:26N 32°23' W 117°35'3 7.2
2017-Sep-19 15:01N 32°26' W 117°36'3 5.9
2017-Sep-19 14:31N 32°29' W 117°34'2 4.4
2017-Sep-19 14:00N 32°27' W 117°33'2 3.3
2017-Sep-19 13:31N 32°25' W 117°33'0 0.5
2017-Sep-19 13:01N 32°25' W 117°33'0 0.2
2017-Sep-19 12:31N 32°25' W 117°33'2 3.4
2017-Sep-19 12:00N 32°24' W 117°35'2 3.7
2017-Sep-19 11:30N 32°25' W 117°34'4 7.0
2017-Sep-19 11:00N 32°29' W 117°32'1 1.9
2017-Sep-19 10:31N 32°29' W 117°31'2 4.4
2017-Sep-19 10:00N 32°31' W 117°30'3 6.3
2017-Sep-19 09:30N 32°34' W 117°29'3 6.3
2017-Sep-19 09:01N 32°37' W 117°28'3 6.6
2017-Sep-19 08:30N 32°41' W 117°28'3 6.7
2017-Sep-19 08:00N 32°44' W 117°28'3 6.7
2017-Sep-19 07:31N 32°47' W 117°27'3 6.7
2017-Sep-19 07:00N 32°51' W 117°27'3 6.8
2017-Sep-19 06:31N 32°54' W 117°26'3 6.8
2017-Sep-19 06:00N 32°57' W 117°26'3 6.9
2017-Sep-19 05:30N 33°01' W 117°26'3 6.8
2017-Sep-19 05:00N 33°04' W 117°25'3 6.8
2017-Sep-19 04:31N 33°08' W 117°25'4 7.6
2017-Sep-19 04:01N 33°11' W 117°25'1 2.7
2017-Sep-19 03:30N 33°12' W 117°24'0 0.4
2017-Sep-19 03:00N 33°12' W 117°23'0 0.0
2017-Sep-19 02:31N 33°12' W 117°23'0 0.0
2017-Sep-19 02:00N 33°12' W 117°23'0 0.0
2017-Sep-19 01:31N 33°12' W 117°23'0 0.0
2017-Sep-19 01:00N 33°12' W 117°23'0 0.0
2017-Sep-19 00:31N 33°12' W 117°23'0 0.0
2017-Sep-19 00:00N 33°12' W 117°23'0 0.0
2017-Sep-18 23:31N 33°12' W 117°23'0 0.0
2017-Sep-18 23:01N 33°12' W 117°23'0 0.0
2017-Sep-18 22:31N 33°12' W 117°23'0 0.0
2017-Sep-18 22:01N 33°12' W 117°23'0 0.0
2017-Sep-18 21:31N 33°12' W 117°23'0 0.0
2017-Sep-18 21:00N 33°12' W 117°23'0 0.0
2017-Sep-18 20:30N 33°12' W 117°23'0 0.0
2017-Sep-18 20:00N 33°12' W 117°23'0 0.0
2017-Sep-18 19:30N 33°12' W 117°23'0 0.0
2017-Sep-18 19:00N 33°12' W 117°23'0 0.0
2017-Sep-18 18:30N 33°12' W 117°23'0 0.0
2017-Sep-18 18:00N 33°12' W 117°23'0 0.0
2017-Sep-18 17:30N 33°12' W 117°23'0 0.0
2017-Sep-18 17:00N 33°12' W 117°23'0 0.0
2017-Sep-18 16:30N 33°12' W 117°23'0 0.0
2017-Sep-18 16:00N 33°12' W 117°23'0 0.0
2017-Sep-18 15:30N 33°12' W 117°23'0 0.0
2017-Sep-18 15:00N 33°12' W 117°23'0 0.0
2017-Sep-18 14:30N 33°12' W 117°23'0 0.0
2017-Sep-18 14:00N 33°12' W 117°23'0 0.0
2017-Sep-18 13:31N 33°12' W 117°23'0 0.0
2017-Sep-18 13:00N 33°12' W 117°23'0 0.0
2017-Sep-18 12:30N 33°12' W 117°23'0 0.0
2017-Sep-18 12:00N 33°12' W 117°23'0 0.0
2017-Sep-18 11:30N 33°12' W 117°23'0 0.0
2017-Sep-18 11:00N 33°12' W 117°23'0 0.0
2017-Sep-18 10:30N 33°12' W 117°23'0 0.0
2017-Sep-18 10:00N 33°12' W 117°23'0 0.0
2017-Sep-18 09:30N 33°12' W 117°23'0 0.0
2017-Sep-18 09:01N 33°12' W 117°23'2 3.9
2017-Sep-18 08:30N 33°11' W 117°24'5 9.8
2017-Sep-18 08:00N 33°06' W 117°25'5 9.8
2017-Sep-18 07:30N 33°01' W 117°25'5 9.7
2017-Sep-18 07:00N 32°56' W 117°25'5 9.5
2017-Sep-18 06:30N 32°51' W 117°25'5 9.6
2017-Sep-18 06:00N 32°46' W 117°26'5 9.6
2017-Sep-18 05:31N 32°42' W 117°26'5 9.5
2017-Sep-18 05:00N 32°37' W 117°26'5 9.4
2017-Sep-18 04:30N 32°32' W 117°27'5 9.7
2017-Sep-18 04:00N 32°27' W 117°27'5 9.7
2017-Sep-18 03:30N 32°22' W 117°27'5 9.7
2017-Sep-18 02:56N 32°17' W 117°27'3 0.8
2017-Sep-17 23:10N 32°19' W 117°30'1 7.8
2017-Sep-17 23:00N 32°20' W 117°31'4 7.4
2017-Sep-17 22:30N 32°23' W 117°34'3 6.3
2017-Sep-17 22:00N 32°25' W 117°31'4 7.2
2017-Sep-17 21:30N 32°28' W 117°32'3 5.6
2017-Sep-17 21:00N 32°31' W 117°34'4 7.3
2017-Sep-17 20:30N 32°34' W 117°35'3 6.0
2017-Sep-17 20:00N 32°37' W 117°35'1 2.0
2017-Sep-17 19:30N 32°36' W 117°35'3 6.7
2017-Sep-17 19:01N 32°35' W 117°31'1 1.0
2017-Sep-17 18:31N 32°35' W 117°32'0 0.5
2017-Sep-17 18:00N 32°35' W 117°32'1 2.4
2017-Sep-17 17:30N 32°34' W 117°32'3 6.9
2017-Sep-17 17:00N 32°31' W 117°33'1 2.6
2017-Sep-17 16:30N 32°32' W 117°33'0 0.5
2017-Sep-17 16:00N 32°32' W 117°33'5 9.5
2017-Sep-17 15:30N 32°27' W 117°34'4 7.2
2017-Sep-17 15:00N 32°24' W 117°34'1 2.2
2017-Sep-17 14:30N 32°25' W 117°33'2 3.0
2017-Sep-17 14:00N 32°25' W 117°32'2 4.5
2017-Sep-17 13:30N 32°27' W 117°34'2 4.2
2017-Sep-17 13:00N 32°25' W 117°32'2 4.7
2017-Sep-17 12:30N 32°26' W 117°35'2 4.9
2017-Sep-17 12:00N 32°24' W 117°36'2 4.6
2017-Sep-17 11:30N 32°22' W 117°35'2 4.4
2017-Sep-17 11:00N 32°24' W 117°35'3 5.6
2017-Sep-17 10:30N 32°27' W 117°35'3 6.0
2017-Sep-17 10:00N 32°30' W 117°34'3 6.0
2017-Sep-17 09:30N 32°33' W 117°33'4 7.2
2017-Sep-17 09:00N 32°36' W 117°32'4 7.6
2017-Sep-17 08:31N 32°40' W 117°31'4 7.8
2017-Sep-17 08:01N 32°44' W 117°30'4 7.9
2017-Sep-17 07:30N 32°48' W 117°29'4 7.9
2017-Sep-17 07:00N 32°52' W 117°28'4 7.9
2017-Sep-17 06:30N 32°55' W 117°28'4 8.0
2017-Sep-17 06:00N 32°59' W 117°27'4 7.8
2017-Sep-17 05:30N 33°03' W 117°27'4 7.8
2017-Sep-17 05:00N 33°07' W 117°26'4 8.1
2017-Sep-17 04:30N 33°11' W 117°25'2 3.5
2017-Sep-17 04:00N 33°12' W 117°24'0 0.4
2017-Sep-17 03:30N 33°12' W 117°23'0 0.0
2017-Sep-17 03:00N 33°12' W 117°23'0 0.0
2017-Sep-17 02:31N 33°12' W 117°23'0 0.2
2017-Sep-17 02:00N 33°12' W 117°24'4 8.6
2017-Sep-17 01:30N 33°08' W 117°25'510.4
2017-Sep-17 01:00N 33°03' W 117°26'510.4
2017-Sep-17 00:30N 32°58' W 117°27'510.1
2017-Sep-17 00:00N 32°53' W 117°28'510.3
2017-Sep-16 23:30N 32°48' W 117°29'510.2
2017-Sep-16 23:00N 32°43' W 117°30'510.1
2017-Sep-16 22:30N 32°38' W 117°31'510.0
2017-Sep-16 22:00N 32°33' W 117°32'5 9.6
2017-Sep-16 21:30N 32°28' W 117°33'  

Dump ship's entire track history